sensor_id;sensor_type;location;lat;lon;timestamp;pressure;altitude;pressure_sealevel;temperature;humidity
31082;BME280;17737;52.586;13.284;2022-08-06T00:02:10;101608.56;;;15.26;88.70
31082;BME280;17737;52.586;13.284;2022-08-06T00:04:38;101619.28;;;15.19;89.30
31082;BME280;17737;52.586;13.284;2022-08-06T00:07:08;101623.31;;;15.09;90.38
31082;BME280;17737;52.586;13.284;2022-08-06T00:09:43;101634.25;;;15.13;89.77
31082;BME280;17737;52.586;13.284;2022-08-06T00:12:27;101631.56;;;14.97;90.24
31082;BME280;17737;52.586;13.284;2022-08-06T00:14:57;101650.56;;;14.97;90.43
31082;BME280;17737;52.586;13.284;2022-08-06T00:17:25;101650.41;;;14.90;90.95
31082;BME280;17737;52.586;13.284;2022-08-06T00:19:58;101650.56;;;14.81;91.57
31082;BME280;17737;52.586;13.284;2022-08-06T00:22:29;101664.22;;;14.85;90.22
31082;BME280;17737;52.586;13.284;2022-08-06T00:24:57;101675.94;;;14.73;91.37
31082;BME280;17737;52.586;13.284;2022-08-06T00:27:24;101678.66;;;14.73;91.96
31082;BME280;17737;52.586;13.284;2022-08-06T00:30:06;101679.69;;;14.68;90.90
31082;BME280;17737;52.586;13.284;2022-08-06T00:32:47;101680.84;;;14.67;90.99
31082;BME280;17737;52.586;13.284;2022-08-06T00:35:18;101681.28;;;14.69;90.85
31082;BME280;17737;52.586;13.284;2022-08-06T00:37:48;101680.06;;;14.67;90.29
31082;BME280;17737;52.586;13.284;2022-08-06T00:40:23;101672.31;;;14.53;90.86
31082;BME280;17737;52.586;13.284;2022-08-06T00:42:54;101679.84;;;14.60;91.00
31082;BME280;17737;52.586;13.284;2022-08-06T00:45:28;101676.50;;;14.50;91.04
31082;BME280;17737;52.586;13.284;2022-08-06T00:47:57;101671.06;;;14.50;91.41
31082;BME280;17737;52.586;13.284;2022-08-06T00:50:29;101676.25;;;14.56;90.65
31082;BME280;17737;52.586;13.284;2022-08-06T00:52:59;101694.59;;;14.46;91.05
31082;BME280;17737;52.586;13.284;2022-08-06T00:55:28;101698.44;;;14.45;91.08
31082;BME280;17737;52.586;13.284;2022-08-06T00:58:05;101701.47;;;14.44;91.48
31082;BME280;17737;52.586;13.284;2022-08-06T01:00:39;101698.66;;;14.40;90.92
31082;BME280;17737;52.586;13.284;2022-08-06T01:03:17;101693.78;;;14.46;91.25
31082;BME280;17737;52.586;13.284;2022-08-06T01:06:05;101686.94;;;14.36;89.96
31082;BME280;17737;52.586;13.284;2022-08-06T01:08:52;101699.59;;;14.32;90.04
31082;BME280;17737;52.586;13.284;2022-08-06T01:11:20;101711.50;;;14.27;89.78
31082;BME280;17737;52.586;13.284;2022-08-06T01:13:48;101707.19;;;14.26;90.17
31082;BME280;17737;52.586;13.284;2022-08-06T01:16:34;101711.97;;;14.17;91.04
31082;BME280;17737;52.586;13.284;2022-08-06T01:22:49;101719.91;;;13.98;91.56
31082;BME280;17737;52.586;13.284;2022-08-06T01:25:49;101710.22;;;13.97;91.84
31082;BME280;17737;52.586;13.284;2022-08-06T01:28:37;101716.94;;;14.27;91.67
31082;BME280;17737;52.586;13.284;2022-08-06T01:31:17;101712.91;;;13.97;91.47
31082;BME280;17737;52.586;13.284;2022-08-06T01:33:50;101719.81;;;13.94;92.48
31082;BME280;17737;52.586;13.284;2022-08-06T01:36:30;101722.19;;;13.96;93.89
31082;BME280;17737;52.586;13.284;2022-08-06T01:39:06;101710.31;;;14.00;92.80
31082;BME280;17737;52.586;13.284;2022-08-06T01:41:49;101707.84;;;13.83;93.38
31082;BME280;17737;52.586;13.284;2022-08-06T01:44:30;101716.44;;;13.73;93.97
31082;BME280;17737;52.586;13.284;2022-08-06T01:47:02;101711.81;;;13.73;94.48
31082;BME280;17737;52.586;13.284;2022-08-06T01:49:42;101712.25;;;13.63;94.45
31082;BME280;17737;52.586;13.284;2022-08-06T01:52:29;101717.56;;;13.60;94.97
31082;BME280;17737;52.586;13.284;2022-08-06T01:55:03;101719.03;;;13.57;95.59
31082;BME280;17737;52.586;13.284;2022-08-06T01:57:38;101718.59;;;13.67;94.56
31082;BME280;17737;52.586;13.284;2022-08-06T02:00:31;101721.97;;;13.52;95.75
31082;BME280;17737;52.586;13.284;2022-08-06T02:03:03;101724.13;;;13.59;96.29
31082;BME280;17737;52.586;13.284;2022-08-06T02:05:35;101722.63;;;13.61;94.27
31082;BME280;17737;52.586;13.284;2022-08-06T02:08:10;101725.47;;;13.52;94.90
31082;BME280;17737;52.586;13.284;2022-08-06T02:11:04;101724.69;;;13.52;94.96
31082;BME280;17737;52.586;13.284;2022-08-06T02:13:56;101723.78;;;13.48;95.52
31082;BME280;17737;52.586;13.284;2022-08-06T02:16:30;101733.03;;;13.59;95.41
31082;BME280;17737;52.586;13.284;2022-08-06T02:19:08;101727.50;;;13.80;94.34
31082;BME280;17737;52.586;13.284;2022-08-06T02:21:42;101734.16;;;13.46;96.12
31082;BME280;17737;52.586;13.284;2022-08-06T02:24:18;101732.59;;;13.45;97.29
31082;BME280;17737;52.586;13.284;2022-08-06T02:26:49;101727.50;;;13.43;96.95
31082;BME280;17737;52.586;13.284;2022-08-06T02:29:18;101730.78;;;13.49;96.86
31082;BME280;17737;52.586;13.284;2022-08-06T02:31:52;101741.25;;;13.26;98.20
31082;BME280;17737;52.586;13.284;2022-08-06T02:34:27;101741.88;;;13.23;98.97
31082;BME280;17737;52.586;13.284;2022-08-06T02:36:57;101748.13;;;13.23;98.25
31082;BME280;17737;52.586;13.284;2022-08-06T02:39:32;101752.03;;;13.14;98.69
31082;BME280;17737;52.586;13.284;2022-08-06T02:42:18;101748.63;;;13.04;98.53
31082;BME280;17737;52.586;13.284;2022-08-06T02:44:55;101759.00;;;13.02;99.09
31082;BME280;17737;52.586;13.284;2022-08-06T02:47:30;101769.91;;;12.94;99.29
31082;BME280;17737;52.586;13.284;2022-08-06T02:50:24;101765.50;;;12.89;100.00
31082;BME280;17737;52.586;13.284;2022-08-06T02:53:00;101763.28;;;13.03;100.00
31082;BME280;17737;52.586;13.284;2022-08-06T02:55:51;101758.81;;;13.20;97.96
31082;BME280;17737;52.586;13.284;2022-08-06T02:58:26;101776.75;;;12.91;99.06
31082;BME280;17737;52.586;13.284;2022-08-06T03:01:06;101781.13;;;12.83;99.84
31082;BME280;17737;52.586;13.284;2022-08-06T03:03:42;101780.81;;;12.85;99.37
31082;BME280;17737;52.586;13.284;2022-08-06T03:06:25;101777.84;;;12.78;100.00
31082;BME280;17737;52.586;13.284;2022-08-06T03:08:56;101782.19;;;12.70;100.00
31082;BME280;17737;52.586;13.284;2022-08-06T03:11:29;101776.41;;;12.59;100.00
31082;BME280;17737;52.586;13.284;2022-08-06T03:14:00;101780.03;;;12.64;100.00
31082;BME280;17737;52.586;13.284;2022-08-06T03:16:49;101782.81;;;12.55;100.00
31082;BME280;17737;52.586;13.284;2022-08-06T03:19:25;101789.16;;;12.59;100.00
31082;BME280;17737;52.586;13.284;2022-08-06T03:22:16;101791.72;;;12.55;100.00
31082;BME280;17737;52.586;13.284;2022-08-06T03:25:04;101800.03;;;12.92;100.00
31082;BME280;17737;52.586;13.284;2022-08-06T03:27:35;101798.56;;;12.53;100.00
31082;BME280;17737;52.586;13.284;2022-08-06T03:30:10;101800.63;;;12.56;100.00
31082;BME280;17737;52.586;13.284;2022-08-06T03:32:58;101803.84;;;12.49;100.00
31082;BME280;17737;52.586;13.284;2022-08-06T03:35:49;101815.47;;;12.50;100.00
31082;BME280;17737;52.586;13.284;2022-08-06T03:38:20;101821.13;;;12.36;100.00
31082;BME280;17737;52.586;13.284;2022-08-06T03:40:55;101827.94;;;12.42;100.00
31082;BME280;17737;52.586;13.284;2022-08-06T03:43:26;101830.97;;;12.41;100.00
31082;BME280;17737;52.586;13.284;2022-08-06T03:46:15;101835.63;;;12.31;100.00
31082;BME280;17737;52.586;13.284;2022-08-06T03:48:47;101831.44;;;12.43;100.00
31082;BME280;17737;52.586;13.284;2022-08-06T03:51:21;101836.13;;;12.54;100.00
31082;BME280;17737;52.586;13.284;2022-08-06T03:54:13;101835.28;;;12.33;100.00
31082;BME280;17737;52.586;13.284;2022-08-06T03:56:54;101839.25;;;12.35;100.00
31082;BME280;17737;52.586;13.284;2022-08-06T03:59:25;101843.03;;;12.43;100.00
31082;BME280;17737;52.586;13.284;2022-08-06T04:02:08;101849.28;;;12.35;100.00
31082;BME280;17737;52.586;13.284;2022-08-06T04:04:58;101845.16;;;12.37;100.00
31082;BME280;17737;52.586;13.284;2022-08-06T04:07:33;101848.38;;;12.31;100.00
31082;BME280;17737;52.586;13.284;2022-08-06T04:10:21;101846.81;;;12.51;100.00
31082;BME280;17737;52.586;13.284;2022-08-06T04:13:02;101858.81;;;12.41;100.00
31082;BME280;17737;52.586;13.284;2022-08-06T04:15:51;101850.06;;;12.44;100.00
31082;BME280;17737;52.586;13.284;2022-08-06T04:18:22;101857.44;;;12.56;100.00
31082;BME280;17737;52.586;13.284;2022-08-06T04:20:54;101856.09;;;12.41;100.00
31082;BME280;17737;52.586;13.284;2022-08-06T04:23:46;101864.22;;;12.41;100.00
31082;BME280;17737;52.586;13.284;2022-08-06T04:26:15;101872.41;;;12.53;100.00
31082;BME280;17737;52.586;13.284;2022-08-06T04:28:46;101870.84;;;12.73;100.00
31082;BME280;17737;52.586;13.284;2022-08-06T04:31:24;101875.13;;;12.53;100.00
31082;BME280;17737;52.586;13.284;2022-08-06T04:34:13;101871.97;;;12.51;100.00
31082;BME280;17737;52.586;13.284;2022-08-06T04:37:13;101875.22;;;12.66;100.00
31082;BME280;17737;52.586;13.284;2022-08-06T04:39:47;101878.44;;;12.59;100.00
31082;BME280;17737;52.586;13.284;2022-08-06T04:42:16;101888.88;;;12.69;99.49
31082;BME280;17737;52.586;13.284;2022-08-06T04:44:45;101891.09;;;12.67;99.01
31082;BME280;17737;52.586;13.284;2022-08-06T04:47:26;101894.94;;;12.66;98.43
31082;BME280;17737;52.586;13.284;2022-08-06T04:50:07;101900.88;;;12.59;99.73
31082;BME280;17737;52.586;13.284;2022-08-06T04:52:36;101898.50;;;12.58;100.00
31082;BME280;17737;52.586;13.284;2022-08-06T04:55:18;101911.09;;;12.54;99.72
31082;BME280;17737;52.586;13.284;2022-08-06T04:57:58;101906.66;;;12.79;99.50
31082;BME280;17737;52.586;13.284;2022-08-06T05:00:37;101903.69;;;12.72;98.83
31082;BME280;17737;52.586;13.284;2022-08-06T05:03:27;101915.56;;;12.79;100.00
31082;BME280;17737;52.586;13.284;2022-08-06T05:06:15;101918.03;;;12.93;98.49
31082;BME280;17737;52.586;13.284;2022-08-06T05:08:50;101923.22;;;12.77;97.41
31082;BME280;17737;52.586;13.284;2022-08-06T05:11:26;101936.38;;;12.58;99.51
31082;BME280;17737;52.586;13.284;2022-08-06T05:14:01;101926.66;;;12.57;99.69
31082;BME280;17737;52.586;13.284;2022-08-06T05:16:34;101938.84;;;12.42;100.00
31082;BME280;17737;52.586;13.284;2022-08-06T05:19:08;101947.38;;;12.53;100.00
31082;BME280;17737;52.586;13.284;2022-08-06T05:21:48;101945.91;;;13.36;95.59
31082;BME280;17737;52.586;13.284;2022-08-06T05:24:38;101952.88;;;12.95;96.44
31082;BME280;17737;52.586;13.284;2022-08-06T05:27:28;101957.72;;;13.10;96.16
31082;BME280;17737;52.586;13.284;2022-08-06T05:30:16;101969.16;;;13.37;94.02
31082;BME280;17737;52.586;13.284;2022-08-06T05:32:45;101973.00;;;13.56;93.56
31082;BME280;17737;52.586;13.284;2022-08-06T05:35:21;101974.03;;;13.64;92.01
31082;BME280;17737;52.586;13.284;2022-08-06T05:38:09;101973.81;;;13.36;93.36
31082;BME280;17737;52.586;13.284;2022-08-06T05:40:37;101972.47;;;13.42;93.03
31082;BME280;17737;52.586;13.284;2022-08-06T05:43:24;101976.75;;;13.43;92.78
31082;BME280;17737;52.586;13.284;2022-08-06T05:46:13;101976.63;;;13.94;91.03
31082;BME280;17737;52.586;13.284;2022-08-06T05:48:53;101985.84;;;14.14;88.26
31082;BME280;17737;52.586;13.284;2022-08-06T05:51:27;101982.59;;;13.87;88.63
31082;BME280;17737;52.586;13.284;2022-08-06T05:54:10;101979.81;;;13.63;90.08
31082;BME280;17737;52.586;13.284;2022-08-06T05:56:43;101988.09;;;13.78;89.42
31082;BME280;17737;52.586;13.284;2022-08-06T05:59:20;101989.22;;;13.77;88.54
31082;BME280;17737;52.586;13.284;2022-08-06T06:02:12;101991.69;;;14.03;88.84
31082;BME280;17737;52.586;13.284;2022-08-06T06:04:44;101995.78;;;14.22;86.59
31082;BME280;17737;52.586;13.284;2022-08-06T06:07:35;101997.97;;;14.41;85.57
31082;BME280;17737;52.586;13.284;2022-08-06T06:10:25;102002.03;;;14.47;84.71
31082;BME280;17737;52.586;13.284;2022-08-06T06:12:59;102004.69;;;14.56;84.97
31082;BME280;17737;52.586;13.284;2022-08-06T06:15:30;102006.28;;;14.69;83.56
31082;BME280;17737;52.586;13.284;2022-08-06T06:18:26;102010.00;;;14.89;81.79
31082;BME280;17737;52.586;13.284;2022-08-06T06:21:05;102005.84;;;14.79;82.24
31082;BME280;17737;52.586;13.284;2022-08-06T06:23:58;102011.13;;;15.12;80.99
31082;BME280;17737;52.586;13.284;2022-08-06T06:26:35;102000.03;;;15.17;79.66
31082;BME280;17737;52.586;13.284;2022-08-06T06:29:16;102002.16;;;15.12;79.99
31082;BME280;17737;52.586;13.284;2022-08-06T06:32:16;102006.50;;;15.41;78.85
31082;BME280;17737;52.586;13.284;2022-08-06T06:34:57;102004.66;;;15.69;76.73
31082;BME280;17737;52.586;13.284;2022-08-06T06:37:35;102018.56;;;15.68;76.38
31082;BME280;17737;52.586;13.284;2022-08-06T06:40:10;102012.34;;;15.67;76.10
31082;BME280;17737;52.586;13.284;2022-08-06T06:42:56;102020.03;;;15.65;76.68
31082;BME280;17737;52.586;13.284;2022-08-06T06:45:30;102024.59;;;15.89;76.22
31082;BME280;17737;52.586;13.284;2022-08-06T06:48:25;102031.25;;;16.20;74.80
31082;BME280;17737;52.586;13.284;2022-08-06T06:51:01;102040.06;;;16.61;73.06
31082;BME280;17737;52.586;13.284;2022-08-06T06:53:35;102040.50;;;16.79;71.17
31082;BME280;17737;52.586;13.284;2022-08-06T06:56:28;102040.19;;;16.80;70.82
31082;BME280;17737;52.586;13.284;2022-08-06T06:59:01;102033.81;;;16.29;71.50
31082;BME280;17737;52.586;13.284;2022-08-06T07:01:42;102037.47;;;16.05;72.65
31082;BME280;17737;52.586;13.284;2022-08-06T07:04:21;102043.91;;;16.44;71.90
31082;BME280;17737;52.586;13.284;2022-08-06T07:06:54;102043.84;;;16.88;70.39
31082;BME280;17737;52.586;13.284;2022-08-06T07:09:40;102048.31;;;16.64;70.60
31082;BME280;17737;52.586;13.284;2022-08-06T07:12:25;102044.91;;;16.68;70.21
31082;BME280;17737;52.586;13.284;2022-08-06T07:14:59;102045.63;;;16.80;70.30
31082;BME280;17737;52.586;13.284;2022-08-06T07:17:29;102055.63;;;16.92;69.67
31082;BME280;17737;52.586;13.284;2022-08-06T07:20:16;102051.31;;;16.75;69.45
31082;BME280;17737;52.586;13.284;2022-08-06T07:22:53;102058.22;;;16.41;71.11
31082;BME280;17737;52.586;13.284;2022-08-06T07:25:44;102059.56;;;16.47;70.50
31082;BME280;17737;52.586;13.284;2022-08-06T07:28:21;102061.13;;;16.48;71.62
31082;BME280;17737;52.586;13.284;2022-08-06T07:30:54;102059.84;;;16.74;69.35
31082;BME280;17737;52.586;13.284;2022-08-06T07:33:30;102063.38;;;16.74;69.80
31082;BME280;17737;52.586;13.284;2022-08-06T07:36:21;102061.22;;;17.15;68.31
31082;BME280;17737;52.586;13.284;2022-08-06T07:38:53;102065.00;;;17.46;67.16
31082;BME280;17737;52.586;13.284;2022-08-06T07:41:26;102064.66;;;17.67;66.91
31082;BME280;17737;52.586;13.284;2022-08-06T07:44:14;102067.13;;;17.91;65.31
31082;BME280;17737;52.586;13.284;2022-08-06T07:46:47;102079.34;;;17.78;65.04
31082;BME280;17737;52.586;13.284;2022-08-06T07:49:19;102073.31;;;17.88;63.93
31082;BME280;17737;52.586;13.284;2022-08-06T07:52:12;102075.00;;;17.22;65.57
31082;BME280;17737;52.586;13.284;2022-08-06T07:54:43;102083.38;;;17.49;65.94
31082;BME280;17737;52.586;13.284;2022-08-06T07:57:15;102075.34;;;17.56;64.91
31082;BME280;17737;52.586;13.284;2022-08-06T07:59:50;102086.00;;;17.45;65.66
31082;BME280;17737;52.586;13.284;2022-08-06T08:02:21;102084.00;;;17.77;64.19
31082;BME280;17737;52.586;13.284;2022-08-06T08:04:55;102082.09;;;18.20;61.67
31082;BME280;17737;52.586;13.284;2022-08-06T08:07:43;102077.75;;;18.39;59.69
31082;BME280;17737;52.586;13.284;2022-08-06T08:10:23;102080.72;;;17.88;60.65
31082;BME280;17737;52.586;13.284;2022-08-06T08:12:54;102086.09;;;17.84;61.36
31082;BME280;17737;52.586;13.284;2022-08-06T08:15:29;102088.56;;;17.54;61.89
31082;BME280;17737;52.586;13.284;2022-08-06T08:17:59;102088.47;;;18.05;60.34
31082;BME280;17737;52.586;13.284;2022-08-06T08:20:30;102089.94;;;17.64;60.76
31082;BME280;17737;52.586;13.284;2022-08-06T08:23:07;102089.66;;;17.33;61.71
31082;BME280;17737;52.586;13.284;2022-08-06T08:25:59;102100.44;;;17.81;60.57
31082;BME280;17737;52.586;13.284;2022-08-06T08:28:33;102095.75;;;18.01;59.85
31082;BME280;17737;52.586;13.284;2022-08-06T08:31:04;102096.84;;;17.96;59.33
31082;BME280;17737;52.586;13.284;2022-08-06T08:33:51;102088.41;;;18.24;58.58
31082;BME280;17737;52.586;13.284;2022-08-06T08:36:20;102096.41;;;18.14;57.87
31082;BME280;17737;52.586;13.284;2022-08-06T08:38:59;102094.59;;;18.64;57.42
31082;BME280;17737;52.586;13.284;2022-08-06T08:41:33;102095.25;;;18.57;55.22
31082;BME280;17737;52.586;13.284;2022-08-06T08:44:17;102097.66;;;19.08;54.07
31082;BME280;17737;52.586;13.284;2022-08-06T08:46:52;102104.72;;;19.09;52.46
31082;BME280;17737;52.586;13.284;2022-08-06T08:49:25;102102.91;;;18.94;50.29
31082;BME280;17737;52.586;13.284;2022-08-06T08:51:59;102107.38;;;19.32;49.82
31082;BME280;17737;52.586;13.284;2022-08-06T08:54:39;102104.91;;;19.23;49.90
31082;BME280;17737;52.586;13.284;2022-08-06T08:57:10;102105.66;;;19.47;49.02
31082;BME280;17737;52.586;13.284;2022-08-06T08:59:58;102100.66;;;18.99;49.93
31082;BME280;17737;52.586;13.284;2022-08-06T09:02:36;102099.81;;;19.22;50.02
31082;BME280;17737;52.586;13.284;2022-08-06T09:05:13;102100.91;;;19.17;51.80
31082;BME280;17737;52.586;13.284;2022-08-06T09:07:44;102103.50;;;18.84;51.14
31082;BME280;17737;52.586;13.284;2022-08-06T09:10:28;102104.63;;;18.79;50.46
31082;BME280;17737;52.586;13.284;2022-08-06T09:13:03;102103.47;;;18.38;51.11
31082;BME280;17737;52.586;13.284;2022-08-06T09:15:53;102110.94;;;18.83;49.70
31082;BME280;17737;52.586;13.284;2022-08-06T09:18:23;102113.63;;;19.33;48.81
31082;BME280;17737;52.586;13.284;2022-08-06T09:20:55;102103.81;;;19.28;49.22
31082;BME280;17737;52.586;13.284;2022-08-06T09:23:23;102098.06;;;19.63;48.67
31082;BME280;17737;52.586;13.284;2022-08-06T09:26:05;102103.81;;;19.85;48.65
31082;BME280;17737;52.586;13.284;2022-08-06T09:28:37;102104.34;;;19.37;50.68
31082;BME280;17737;52.586;13.284;2022-08-06T09:31:08;102109.00;;;19.10;50.69
31082;BME280;17737;52.586;13.284;2022-08-06T09:33:59;102113.41;;;19.45;49.10
31082;BME280;17737;52.586;13.284;2022-08-06T09:36:48;102105.78;;;20.22;46.76
31082;BME280;17737;52.586;13.284;2022-08-06T09:39:29;102109.34;;;20.26;46.70
31082;BME280;17737;52.586;13.284;2022-08-06T09:45:09;102120.94;;;19.25;50.42
31082;BME280;17737;52.586;13.284;2022-08-06T09:47:42;102120.72;;;19.11;50.03
31082;BME280;17737;52.586;13.284;2022-08-06T09:50:37;102119.31;;;19.20;50.69
31082;BME280;17737;52.586;13.284;2022-08-06T09:53:09;102127.38;;;19.93;49.02
31082;BME280;17737;52.586;13.284;2022-08-06T09:55:46;102115.94;;;19.87;48.16
31082;BME280;17737;52.586;13.284;2022-08-06T09:58:26;102112.88;;;19.62;48.04
31082;BME280;17737;52.586;13.284;2022-08-06T10:01:13;102108.22;;;19.63;46.89
31082;BME280;17737;52.586;13.284;2022-08-06T10:03:48;102108.31;;;20.04;46.95
31082;BME280;17737;52.586;13.284;2022-08-06T10:06:32;102104.56;;;21.04;45.21
31082;BME280;17737;52.586;13.284;2022-08-06T10:09:05;102117.41;;;20.49;45.12
31082;BME280;17737;52.586;13.284;2022-08-06T10:11:55;102119.06;;;19.86;46.35
31082;BME280;17737;52.586;13.284;2022-08-06T10:14:26;102121.72;;;19.79;46.23
31082;BME280;17737;52.586;13.284;2022-08-06T10:17:04;102121.59;;;20.39;44.90
31082;BME280;17737;52.586;13.284;2022-08-06T10:19:34;102119.53;;;20.66;45.09
31082;BME280;17737;52.586;13.284;2022-08-06T10:22:03;102116.53;;;20.78;44.40
31082;BME280;17737;52.586;13.284;2022-08-06T10:24:33;102115.69;;;20.33;44.55
31082;BME280;17737;52.586;13.284;2022-08-06T10:27:16;102120.81;;;20.38;44.97
31082;BME280;17737;52.586;13.284;2022-08-06T10:29:49;102122.38;;;19.99;45.34
31082;BME280;17737;52.586;13.284;2022-08-06T10:32:22;102122.13;;;19.81;46.05
31082;BME280;17737;52.586;13.284;2022-08-06T10:35:00;102122.88;;;19.78;46.61
31082;BME280;17737;52.586;13.284;2022-08-06T10:37:38;102126.94;;;19.91;46.55
31082;BME280;17737;52.586;13.284;2022-08-06T10:40:23;102121.25;;;20.40;45.18
31082;BME280;17737;52.586;13.284;2022-08-06T10:42:56;102123.63;;;20.46;43.45
31082;BME280;17737;52.586;13.284;2022-08-06T10:45:27;102120.97;;;20.53;43.22
31082;BME280;17737;52.586;13.284;2022-08-06T10:48:15;102123.50;;;20.69;42.90
31082;BME280;17737;52.586;13.284;2022-08-06T10:51:05;102120.47;;;20.84;42.58
31082;BME280;17737;52.586;13.284;2022-08-06T10:53:35;102109.28;;;21.04;42.01
31082;BME280;17737;52.586;13.284;2022-08-06T10:56:26;102116.91;;;20.80;41.92
31082;BME280;17737;52.586;13.284;2022-08-06T10:59:02;102116.88;;;20.73;41.26
31082;BME280;17737;52.586;13.284;2022-08-06T11:01:35;102113.34;;;21.28;40.53
31082;BME280;17737;52.586;13.284;2022-08-06T11:07:09;102106.50;;;21.59;39.73
31082;BME280;17737;52.586;13.284;2022-08-06T11:13:02;102107.28;;;21.59;37.57
31082;BME280;17737;52.586;13.284;2022-08-06T11:15:39;102103.75;;;21.63;39.04
31082;BME280;17737;52.586;13.284;2022-08-06T11:18:12;102094.88;;;21.94;38.82
31082;BME280;17737;52.586;13.284;2022-08-06T11:20:47;102097.09;;;21.64;39.82
31082;BME280;17737;52.586;13.284;2022-08-06T11:23:26;102103.94;;;21.29;39.88
31082;BME280;17737;52.586;13.284;2022-08-06T11:26:31;102098.41;;;22.05;39.33
31082;BME280;17737;52.586;13.284;2022-08-06T11:29:04;102086.56;;;21.76;38.81
31082;BME280;17737;52.586;13.284;2022-08-06T11:31:34;102099.56;;;21.17;39.55
31082;BME280;17737;52.586;13.284;2022-08-06T11:34:10;102101.81;;;21.01;39.66
31082;BME280;17737;52.586;13.284;2022-08-06T11:36:53;102096.81;;;21.17;39.58
31082;BME280;17737;52.586;13.284;2022-08-06T11:40:03;102089.47;;;21.32;37.77
31082;BME280;17737;52.586;13.284;2022-08-06T11:42:40;102087.81;;;21.93;36.25
31082;BME280;17737;52.586;13.284;2022-08-06T11:45:15;102083.59;;;22.35;35.96
31082;BME280;17737;52.586;13.284;2022-08-06T11:48:04;102085.84;;;21.94;35.55
31082;BME280;17737;52.586;13.284;2022-08-06T11:50:53;102070.44;;;21.68;35.59
31082;BME280;17737;52.586;13.284;2022-08-06T11:53:36;102086.50;;;20.96;37.07
31082;BME280;17737;52.586;13.284;2022-08-06T11:56:18;102081.16;;;21.18;36.45
31082;BME280;17737;52.586;13.284;2022-08-06T12:01:46;102076.63;;;21.47;36.37
31082;BME280;17737;52.586;13.284;2022-08-06T12:07:17;102085.97;;;22.76;35.01
31082;BME280;17737;52.586;13.284;2022-08-06T12:09:59;102077.69;;;22.22;35.47
31082;BME280;17737;52.586;13.284;2022-08-06T12:12:33;102076.41;;;21.95;35.70
31082;BME280;17737;52.586;13.284;2022-08-06T12:15:04;102078.72;;;21.82;35.62
31082;BME280;17737;52.586;13.284;2022-08-06T12:18:24;102083.94;;;21.25;36.46
31082;BME280;17737;52.586;13.284;2022-08-06T12:20:56;102089.44;;;21.28;37.30
31082;BME280;17737;52.586;13.284;2022-08-06T12:23:26;102086.91;;;21.02;37.51
31082;BME280;17737;52.586;13.284;2022-08-06T12:26:15;102086.09;;;20.98;37.31
31082;BME280;17737;52.586;13.284;2022-08-06T12:29:05;102082.88;;;21.40;35.63
31082;BME280;17737;52.586;13.284;2022-08-06T12:31:35;102082.75;;;22.17;35.16
31082;BME280;17737;52.586;13.284;2022-08-06T12:34:24;102075.78;;;22.59;34.36
31082;BME280;17737;52.586;13.284;2022-08-06T12:36:57;102076.91;;;22.36;33.50
31082;BME280;17737;52.586;13.284;2022-08-06T12:39:26;102076.44;;;22.02;34.27
31082;BME280;17737;52.586;13.284;2022-08-06T12:42:22;102075.31;;;22.14;34.03
31082;BME280;17737;52.586;13.284;2022-08-06T12:45:10;102069.34;;;21.90;34.74
31082;BME280;17737;52.586;13.284;2022-08-06T12:47:58;102081.53;;;21.93;34.90
31082;BME280;17737;52.586;13.284;2022-08-06T12:50:31;102079.13;;;21.77;35.01
31082;BME280;17737;52.586;13.284;2022-08-06T12:53:01;102076.00;;;21.85;35.15
31082;BME280;17737;52.586;13.284;2022-08-06T12:55:32;102073.38;;;22.18;32.51
31082;BME280;17737;52.586;13.284;2022-08-06T12:58:03;102073.41;;;22.39;32.44
31082;BME280;17737;52.586;13.284;2022-08-06T13:00:52;102064.66;;;21.94;33.49
31082;BME280;17737;52.586;13.284;2022-08-06T13:03:22;102068.97;;;21.95;33.83
31082;BME280;17737;52.586;13.284;2022-08-06T13:05:52;102070.53;;;21.93;34.05
31082;BME280;17737;52.586;13.284;2022-08-06T13:08:25;102062.34;;;22.11;33.57
31082;BME280;17737;52.586;13.284;2022-08-06T13:10:55;102061.94;;;22.08;33.89
31082;BME280;17737;52.586;13.284;2022-08-06T13:13:33;102069.66;;;21.71;33.27
31082;BME280;17737;52.586;13.284;2022-08-06T13:16:23;102065.31;;;21.59;32.12
31082;BME280;17737;52.586;13.284;2022-08-06T13:19:04;102072.91;;;21.98;33.24
31082;BME280;17737;52.586;13.284;2022-08-06T13:21:42;102069.38;;;22.04;33.54
31082;BME280;17737;52.586;13.284;2022-08-06T13:24:26;102072.13;;;22.01;32.54
31082;BME280;17737;52.586;13.284;2022-08-06T13:27:01;102062.03;;;22.55;31.92
31082;BME280;17737;52.586;13.284;2022-08-06T13:29:33;102067.53;;;22.59;31.69
31082;BME280;17737;52.586;13.284;2022-08-06T13:32:23;102064.38;;;22.49;31.75
31082;BME280;17737;52.586;13.284;2022-08-06T13:35:00;102073.75;;;22.20;32.07
31082;BME280;17737;52.586;13.284;2022-08-06T13:37:45;102066.31;;;22.24;32.76
31082;BME280;17737;52.586;13.284;2022-08-06T13:40:36;102070.94;;;22.02;33.17
31082;BME280;17737;52.586;13.284;2022-08-06T13:43:33;102065.84;;;22.00;33.78
31082;BME280;17737;52.586;13.284;2022-08-06T13:46:08;102061.50;;;21.92;34.76
31082;BME280;17737;52.586;13.284;2022-08-06T13:48:43;102068.66;;;22.22;34.32
31082;BME280;17737;52.586;13.284;2022-08-06T13:51:12;102065.50;;;22.20;33.83
31082;BME280;17737;52.586;13.284;2022-08-06T13:53:52;102054.16;;;22.57;33.29
31082;BME280;17737;52.586;13.284;2022-08-06T13:56:24;102055.31;;;22.95;32.40